Humidity-temperature Sensor

Selected Measurement Type: Relative Humidity

 
Relative Humidity [%]     6 entries per hour
Showing data from 6/27/2020 (00:00:00 Z) to 6/20/2020 (00:01:00 Z)
Previous Next [ Day | 3-Days | 7-Days ]
First Last
Prev [ Day | 3-Days | 7-Days ] Next
First Last

Start Time:     :
End Time:     :     
Time (in GMT) :00 :50 :40 :30 :20 :10
Previous Next [ Day | 3-Days | 7-Days ]
First Last
Prev [ Day | 3-Days | 7-Days ] Next
First Last


123 => good data
MM => data is determined as missing
-- => data not received/configured
Back to Top Back to Top
6/27/2020 00:00 to 23:10 85.69 85.83 85.31 85.05 84.21 86.13
6/26/2020 23:00 to 22:10 86.91 85.27 84.71 85.31 84.13 83.79
6/26/2020 22:00 to 21:10 82.98 83.18 84.45 83.79 83.63 83.45
6/26/2020 21:00 to 20:10 83.34 83.14 83.18 82.90 83.16 82.44
6/26/2020 20:00 to 19:10 82.18 81.48 82.04 80.82 80.46 80.34
6/26/2020 19:00 to 18:10 80.60 82.58 80.86 81.62 82.12 82.78
6/26/2020 18:00 to 17:10 82.28 82.16 80.52 80.56 82.38 82.50
6/26/2020 17:00 to 16:10 82.40 84.21 83.97 84.51 83.20 83.24
6/26/2020 16:00 to 15:10 83.22 82.14 82.62 83.55 83.81 83.85
6/26/2020 15:00 to 14:10 83.95 83.81 84.55 84.85 85.01 84.07
6/26/2020 14:00 to 13:10 83.36 82.96 83.47 83.89 83.04 82.68
6/26/2020 13:00 to 12:10 82.36 80.70 80.36 78.61 77.75 78.69
6/26/2020 12:00 to 11:10 78.13 79.96 79.17 79.86 79.67 80.50
6/26/2020 11:00 to 10:10 80.38 82.98 83.40 84.11 84.29 84.19
6/26/2020 10:00 to 9:10 83.81 83.45 82.46 83.71 81.90 82.90
6/26/2020 09:00 to 8:10 83.69 84.57 84.07 82.18 81.92 82.92
6/26/2020 08:00 to 7:10 83.00 83.51 83.14 83.77 82.60 83.89
6/26/2020 07:00 to 6:10 83.18 83.61 83.57 83.47 82.28 81.98
6/26/2020 06:00 to 5:10 81.98 82.52 82.82 84.11 83.93 85.11
6/26/2020 05:00 to 4:10 84.59 84.53 83.71 84.05 83.81 85.27
6/26/2020 04:00 to 3:10 83.83 82.86 83.06 83.99 82.28 81.66
6/26/2020 03:00 to 2:10 80.96 82.24 82.94 83.12 84.59 84.39
6/26/2020 02:00 to 1:10 84.17 84.75 85.51 84.99 85.43 84.35
6/26/2020 01:00 to 0:10 84.67 83.91 83.38 84.05 84.07 84.01
6/26/2020 00:00 to 23:10 83.38 83.59 83.06 83.61 84.59 83.91
6/25/2020 23:00 to 22:10 83.26 84.81 84.69 85.51 85.97 86.23
6/25/2020 22:00 to 21:10 85.85 85.81 86.33 86.29 85.91 85.47
6/25/2020 21:00 to 20:10 87.20 87.26 86.57 85.21 85.31 86.09
6/25/2020 20:00 to 19:10 86.35 85.67 84.49 85.43 86.71 86.99
6/25/2020 19:00 to 18:10 87.44 88.18 87.34 86.11 83.22 82.70
6/25/2020 18:00 to 17:10 82.36 80.80 80.54 83.02 83.32 84.07
6/25/2020 17:00 to 16:10 85.85 85.71 77.07 78.55 79.86 79.88
6/25/2020 16:00 to 15:10 79.49 79.21 79.25 80.58 82.00 81.94
6/25/2020 15:00 to 14:10 78.83 86.49 90.00 91.03 93.95 93.89
6/25/2020 14:00 to 13:10 93.51 90.93 89.22 89.40 88.94 89.20
6/25/2020 13:00 to 12:10 91.53 92.11 93.13 93.77 93.57 94.23
6/25/2020 12:00 to 11:10 94.09 94.15 93.45 91.41 93.63 93.59
6/25/2020 11:00 to 10:10 91.31 91.51 91.69 91.77 91.67 91.17
6/25/2020 10:00 to 9:10 90.97 90.12 89.64 89.06 89.28 89.06
6/25/2020 09:00 to 8:10 89.42 91.79 90.46 89.18 89.02 88.78
6/25/2020 08:00 to 7:10 88.74 88.90 89.52 89.44 89.78 88.78
6/25/2020 07:00 to 6:10 88.74 88.26 88.70 88.38 87.86 87.32
6/25/2020 06:00 to 5:10 87.26 86.49 86.65 86.75 86.97 87.08
6/25/2020 05:00 to 4:10 86.59 87.26 87.06 86.59 87.32 86.49
6/25/2020 04:00 to 3:10 86.17 86.31 85.85 86.65 87.08 86.99
6/25/2020 03:00 to 2:10 86.93 86.65 87.60 87.03 87.03 87.08
6/25/2020 02:00 to 1:10 86.59 87.34 87.32 87.46 86.71 86.37
6/25/2020 01:00 to 0:10 86.17 86.69 87.74 87.98 87.78 87.40
6/25/2020 00:00 to 23:10 86.97 86.85 86.13 87.30 85.93 85.55
6/24/2020 23:00 to 22:10 85.17 84.99 84.15 85.53 85.45 85.49
6/24/2020 22:00 to 21:10 85.69 86.75 87.44 86.97 86.59 85.95
6/24/2020 21:00 to 20:10 85.29 85.07 84.39 84.61 85.39 86.07
6/24/2020 20:00 to 19:10 86.01 85.61 85.41 85.31 84.57 84.75
6/24/2020 19:00 to 18:10 84.29 84.27 84.81 85.73 87.48 87.22
6/24/2020 18:00 to 17:10 87.44 86.71 85.31 84.17 82.96 82.90
6/24/2020 17:00 to 16:10 81.24 81.90 82.40 84.61 82.96 83.18
6/24/2020 16:00 to 15:10 83.77 82.74 81.82 80.68 82.18 82.66
6/24/2020 15:00 to 14:10 82.36 83.04 82.86 83.99 84.63 86.17
6/24/2020 14:00 to 13:10 85.13 85.63 86.93 85.81 86.83 85.95
6/24/2020 13:00 to 12:10 86.25 85.81 86.81 87.50 86.59 85.25
6/24/2020 12:00 to 11:10 85.51 84.75 83.75 82.24 82.66 84.73
6/24/2020 11:00 to 10:10 84.23 84.09 84.53 85.79 86.27 85.11
6/24/2020 10:00 to 9:10 84.83 85.23 85.89 85.33 85.43 84.45
6/24/2020 09:00 to 8:10 83.51 83.55 82.14 83.71 83.65 85.99
6/24/2020 08:00 to 7:10 86.13 85.21 85.95 85.67 84.41 84.93
6/24/2020 07:00 to 6:10 85.57 84.51 84.69 84.21 83.20 82.86
6/24/2020 06:00 to 5:10 84.29 84.25 83.49 83.45 83.47 83.32
6/24/2020 05:00 to 4:10 83.42 83.06 83.10 83.65 83.36 83.59
6/24/2020 04:00 to 3:10 83.79 83.47 82.54 81.66 80.30 81.40
6/24/2020 03:00 to 2:10 80.76 79.25 79.33 79.86 80.10 80.72
6/24/2020 02:00 to 1:10 81.74 82.22 81.60 81.42 81.32 81.38
6/24/2020 01:00 to 0:10 82.02 82.54 82.34 82.56 82.04 83.45
6/24/2020 00:00 to 23:10 82.40 82.82 82.38 82.12 82.08 82.48
6/23/2020 23:00 to 22:10 82.34 81.90 83.36 83.47 83.10 82.56
6/23/2020 22:00 to 21:10 83.12 81.64 81.50 79.75 79.07 79.65
6/23/2020 21:00 to 20:10 77.91 77.17 78.11 79.37 79.17 80.34
6/23/2020 20:00 to 19:10 79.75 78.31 78.41 79.21 79.19 77.93
6/23/2020 19:00 to 18:10 77.97 79.69 82.40 84.21 84.05 83.47
6/23/2020 18:00 to 17:10 81.86 85.25 82.26 80.66 79.33 78.51
6/23/2020 17:00 to 16:10 77.61 77.43 76.71 76.19 74.34 76.41
6/23/2020 16:00 to 15:10 80.20 83.10 84.15 82.76 82.78 79.49
6/23/2020 15:00 to 14:10 82.20 84.35 84.23 84.95 84.63 85.23
6/23/2020 14:00 to 13:10 86.25 87.54 86.97 87.36 87.74 87.80
6/23/2020 13:00 to 12:10 87.32 87.10 86.45 86.45 85.97 85.89
6/23/2020 12:00 to 11:10 86.03 85.93 85.93 85.47 86.41 86.27
6/23/2020 11:00 to 10:10 85.65 85.51 85.47 85.21 84.93 83.91
6/23/2020 10:00 to 9:10 82.50 83.57 84.55 84.11 83.79 83.61
6/23/2020 09:00 to 8:10 84.31 85.11 84.41 85.63 85.49 84.75
6/23/2020 08:00 to 7:10 84.45 84.89 84.87 84.75 84.55 84.17
6/23/2020 07:00 to 6:10 82.94 84.69 83.73 84.69 83.45 83.30
6/23/2020 06:00 to 5:10 84.59 85.07 83.34 83.77 83.36 82.36
6/23/2020 05:00 to 4:10 82.68 83.67 82.82 82.34 82.86 82.80
6/23/2020 04:00 to 3:10 84.33 84.29 83.77 83.87 83.65 83.42
6/23/2020 03:00 to 2:10 83.36 83.57 83.49 84.09 84.77 85.33
6/23/2020 02:00 to 1:10 84.83 85.03 84.69 83.93 84.23 84.79
6/23/2020 01:00 to 0:10 85.11 85.11 83.87 84.65 84.35 84.71
6/23/2020 00:00 to 23:10 84.33 83.89 84.27 84.03 83.97 83.59
6/22/2020 23:00 to 22:10 83.55 83.42 83.57 84.67 84.87 85.17
6/22/2020 22:00 to 21:10 84.13 85.01 85.17 85.15 84.89 84.49
6/22/2020 21:00 to 20:10 83.89 84.13 83.89 83.87 83.53 83.91
6/22/2020 20:00 to 19:10 83.16 82.84 83.91 82.90 84.15 83.04
6/22/2020 19:00 to 18:10 82.14 82.84 83.28 83.69 83.30 83.38
6/22/2020 18:00 to 17:10 85.25 84.33 83.63 83.49 86.71 87.24
6/22/2020 17:00 to 16:10 87.38 87.08 86.51 85.81 85.27 85.63
6/22/2020 16:00 to 15:10 84.81 87.74 89.08 89.44 89.22 88.20
6/22/2020 15:00 to 14:10 86.29 89.34 87.92 90.28 89.38 87.46
6/22/2020 14:00 to 13:10 87.06 89.24 93.93 93.85 92.97 93.27
6/22/2020 13:00 to 12:10 92.13 90.73 90.04 90.18 90.48 91.65
6/22/2020 12:00 to 11:10 93.63 95.44 94.66 92.97 91.23 91.45
6/22/2020 11:00 to 10:10 92.35 92.81 92.47 93.13 93.31 92.11
6/22/2020 10:00 to 9:10 90.64 87.92 87.84 88.10 88.16 88.56
6/22/2020 09:00 to 8:10 88.30 87.62 87.46 87.16 86.75 85.81
6/22/2020 08:00 to 7:10 85.69 86.45 86.73 86.21 86.17 85.69
6/22/2020 07:00 to 6:10 85.43 86.09 85.13 85.51 85.39 85.13
6/22/2020 06:00 to 5:10 86.01 86.33 86.01 85.59 85.37 84.57
6/22/2020 05:00 to 4:10 84.39 83.57 83.93 83.45 84.51 84.27
6/22/2020 04:00 to 3:10 83.99 84.07 85.09 83.79 84.23 83.16
6/22/2020 03:00 to 2:10 84.21 85.21 84.83 85.95 85.45 85.13
6/22/2020 02:00 to 1:10 84.75 85.49 85.51 84.59 83.81 83.79
6/22/2020 01:00 to 0:10 83.47 83.10 82.70 83.08 83.28 83.12
6/22/2020 00:00 to 23:10 83.61 83.81 84.57 83.38 83.28 83.00
6/21/2020 23:00 to 22:10 84.83 83.32 82.86 82.92 83.93 84.15
6/21/2020 22:00 to 21:10 83.71 83.28 82.32 83.20 84.27 83.73
6/21/2020 21:00 to 20:10 83.49 83.71 83.61 84.03 82.84 82.58
6/21/2020 20:00 to 19:10 82.86 82.22 81.68 81.78 82.34 82.92
6/21/2020 19:00 to 18:10 82.24 81.80 81.38 80.04 81.36 81.44
6/21/2020 18:00 to 17:10 81.96 82.24 83.40 81.96 82.84 81.42
6/21/2020 17:00 to 16:10 81.38 81.00 80.98 80.72 81.10 81.04
6/21/2020 16:00 to 15:10 79.49 80.00 78.27 79.88 80.00 79.49
6/21/2020 15:00 to 14:10 80.52 80.46 80.84 81.12 82.54 83.16
6/21/2020 14:00 to 13:10 82.48 81.58 82.48 83.06 81.94 81.78
6/21/2020 13:00 to 12:10 80.46 81.46 81.28 81.08 80.96 82.18
6/21/2020 12:00 to 11:10 81.70 83.28 82.80 81.58 81.30 82.12
6/21/2020 11:00 to 10:10 82.08 83.45 82.66 81.84 81.40 81.20
6/21/2020 10:00 to 9:10 80.62 79.94 79.33 79.31 79.17 79.69
6/21/2020 09:00 to 8:10 80.08 79.65 79.94 79.73 78.21 76.87
6/21/2020 08:00 to 7:10 76.25 77.59 78.71 77.93 78.55 77.97
6/21/2020 07:00 to 6:10 77.19 77.17 78.13 78.73 78.09 77.63
6/21/2020 06:00 to 5:10 77.99 78.43 79.69 79.19 80.34 77.47
6/21/2020 05:00 to 4:10 79.55 78.45 79.21 79.39 80.68 80.52
6/21/2020 04:00 to 3:10 81.18 80.88 81.70 81.44 81.84 81.96
6/21/2020 03:00 to 2:10 80.94 80.14 79.88 80.38 79.33 79.19
6/21/2020 02:00 to 1:10 79.98 80.56 81.80 81.50 79.82 81.20
6/21/2020 01:00 to 0:10 80.14 80.78 80.52 81.32 81.14 81.72
6/21/2020 00:00 to 23:10 81.18 81.48 81.24 81.70 83.22 83.16
6/20/2020 23:00 to 22:10 83.00 82.66 81.12 81.60 81.14 82.12
6/20/2020 22:00 to 21:10 82.80 82.64 81.70 81.30 80.36 81.08
6/20/2020 21:00 to 20:10 81.50 81.18 82.12 82.20 81.00 80.74
6/20/2020 20:00 to 19:10 83.16 81.52 84.83 81.90 82.06 84.63
6/20/2020 19:00 to 18:10 88.88 90.85 92.21 94.07 93.37 90.71
6/20/2020 18:00 to 17:10 86.97 86.61 88.82 88.06 88.38 89.40
6/20/2020 17:00 to 16:10 88.52 85.69 86.97 88.34 85.31 83.73
6/20/2020 16:00 to 15:10 86.31 86.05 86.65 85.59 86.05 86.01
6/20/2020 15:00 to 14:10 88.06 88.58 90.97 91.41 91.57 91.69
6/20/2020 14:00 to 13:10 92.43 90.46 89.68 83.53 83.83 85.29
6/20/2020 13:00 to 12:10 86.81 85.93 84.77 84.99 85.01 84.93
6/20/2020 12:00 to 11:10 85.35 85.09 85.17 85.65 85.07 85.03
6/20/2020 11:00 to 10:10 85.75 86.63 86.35 86.15 85.73 86.37
6/20/2020 10:00 to 9:10 85.97 85.25 84.57 85.33 84.85 85.47
6/20/2020 09:00 to 8:10 84.33 86.37 85.05 83.69 83.89 85.37
6/20/2020 08:00 to 7:10 85.03 85.15 84.99 85.55 83.08 82.60
6/20/2020 07:00 to 6:10 82.58 83.75 83.57 84.07 83.55 82.38
6/20/2020 06:00 to 5:10 82.36 81.52 81.26 81.68 82.64 83.08
6/20/2020 05:00 to 4:10 83.61 83.18 82.28 81.36 80.58 84.77
6/20/2020 04:00 to 3:10 84.93 84.03 83.71 84.01 84.43 85.29
6/20/2020 03:00 to 2:10 84.41 84.35 83.81 83.22 82.26 82.28
6/20/2020 02:00 to 1:10 82.84 82.88 83.06 83.65 83.32 84.29
6/20/2020 01:00 to 0:10 83.30 83.14 82.96 82.72 83.08 84.51